sensor_id;sensor_type;location;lat;lon;timestamp;temperature;humidity
4701;DHT22;8724;51.272;6.554;2023-05-10T00:00:29;17.40;99.90
4701;DHT22;8724;51.272;6.554;2023-05-10T00:02:58;17.40;99.90
4701;DHT22;8724;51.272;6.554;2023-05-10T00:05:26;17.30;99.90
4701;DHT22;8724;51.272;6.554;2023-05-10T00:07:56;17.30;99.90
4701;DHT22;8724;51.272;6.554;2023-05-10T00:10:24;17.20;99.90
4701;DHT22;8724;51.272;6.554;2023-05-10T00:12:53;17.10;99.90
4701;DHT22;8724;51.272;6.554;2023-05-10T00:15:22;17.00;99.90
4701;DHT22;8724;51.272;6.554;2023-05-10T00:17:50;17.00;99.90
4701;DHT22;8724;51.272;6.554;2023-05-10T00:20:18;17.00;99.90
4701;DHT22;8724;51.272;6.554;2023-05-10T00:22:47;17.00;99.90
4701;DHT22;8724;51.272;6.554;2023-05-10T00:25:17;17.00;99.90
4701;DHT22;8724;51.272;6.554;2023-05-10T00:27:45;17.00;99.90
4701;DHT22;8724;51.272;6.554;2023-05-10T00:30:14;17.00;99.90
4701;DHT22;8724;51.272;6.554;2023-05-10T00:32:42;17.00;99.90
4701;DHT22;8724;51.272;6.554;2023-05-10T00:35:11;16.90;99.90
4701;DHT22;8724;51.272;6.554;2023-05-10T00:37:39;17.00;99.90
4701;DHT22;8724;51.272;6.554;2023-05-10T00:40:08;16.90;99.90
4701;DHT22;8724;51.272;6.554;2023-05-10T00:42:38;16.90;99.90
4701;DHT22;8724;51.272;6.554;2023-05-10T00:45:07;16.90;99.90
4701;DHT22;8724;51.272;6.554;2023-05-10T00:47:36;16.90;99.90
4701;DHT22;8724;51.272;6.554;2023-05-10T00:50:06;16.90;99.90
4701;DHT22;8724;51.272;6.554;2023-05-10T00:52:35;16.90;99.90
4701;DHT22;8724;51.272;6.554;2023-05-10T00:55:05;16.90;99.90
4701;DHT22;8724;51.272;6.554;2023-05-10T00:57:34;16.90;99.90
4701;DHT22;8724;51.272;6.554;2023-05-10T01:00:05;16.90;99.90
4701;DHT22;8724;51.272;6.554;2023-05-10T01:02:34;16.90;99.90
4701;DHT22;8724;51.272;6.554;2023-05-10T01:05:03;16.90;99.90
4701;DHT22;8724;51.272;6.554;2023-05-10T01:07:32;16.90;99.90
4701;DHT22;8724;51.272;6.554;2023-05-10T01:10:00;16.90;99.90
4701;DHT22;8724;51.272;6.554;2023-05-10T01:12:29;16.90;99.90
4701;DHT22;8724;51.272;6.554;2023-05-10T01:14:57;16.90;99.90
4701;DHT22;8724;51.272;6.554;2023-05-10T01:17:28;16.90;99.90
4701;DHT22;8724;51.272;6.554;2023-05-10T01:19:56;16.90;99.90
4701;DHT22;8724;51.272;6.554;2023-05-10T01:22:47;16.90;99.90
4701;DHT22;8724;51.272;6.554;2023-05-10T01:25:37;16.90;99.90
4701;DHT22;8724;51.272;6.554;2023-05-10T01:28:34;16.90;99.90
4701;DHT22;8724;51.272;6.554;2023-05-10T01:31:22;17.20;99.90
4701;DHT22;8724;51.272;6.554;2023-05-10T01:33:57;16.90;99.90
4701;DHT22;8724;51.272;6.554;2023-05-10T01:36:30;16.90;99.90
4701;DHT22;8724;51.272;6.554;2023-05-10T01:39:02;16.90;99.90
4701;DHT22;8724;51.272;6.554;2023-05-10T01:41:39;16.90;99.90
4701;DHT22;8724;51.272;6.554;2023-05-10T01:44:17;16.90;99.90
4701;DHT22;8724;51.272;6.554;2023-05-10T01:46:53;16.90;99.90
4701;DHT22;8724;51.272;6.554;2023-05-10T01:49:27;16.90;99.90
4701;DHT22;8724;51.272;6.554;2023-05-10T01:52:00;16.90;99.90
4701;DHT22;8724;51.272;6.554;2023-05-10T01:54:31;17.00;99.90
4701;DHT22;8724;51.272;6.554;2023-05-10T01:57:06;17.00;99.90
4701;DHT22;8724;51.272;6.554;2023-05-10T01:59:37;17.00;99.90
4701;DHT22;8724;51.272;6.554;2023-05-10T02:02:08;16.90;99.90
4701;DHT22;8724;51.272;6.554;2023-05-10T02:04:41;17.00;99.90
4701;DHT22;8724;51.272;6.554;2023-05-10T02:07:10;17.00;99.90
4701;DHT22;8724;51.272;6.554;2023-05-10T02:09:40;17.00;99.90
4701;DHT22;8724;51.272;6.554;2023-05-10T02:12:15;17.00;99.90
4701;DHT22;8724;51.272;6.554;2023-05-10T02:14:45;17.00;99.90
4701;DHT22;8724;51.272;6.554;2023-05-10T02:17:15;17.00;99.90
4701;DHT22;8724;51.272;6.554;2023-05-10T02:19:47;17.00;99.90
4701;DHT22;8724;51.272;6.554;2023-05-10T02:22:18;17.00;99.90
4701;DHT22;8724;51.272;6.554;2023-05-10T02:24:50;17.00;99.90
4701;DHT22;8724;51.272;6.554;2023-05-10T02:27:19;17.00;99.90
4701;DHT22;8724;51.272;6.554;2023-05-10T02:29:50;17.00;99.90
4701;DHT22;8724;51.272;6.554;2023-05-10T02:32:19;17.00;99.90
4701;DHT22;8724;51.272;6.554;2023-05-10T02:34:49;17.00;99.90
4701;DHT22;8724;51.272;6.554;2023-05-10T02:37:19;17.00;99.90
4701;DHT22;8724;51.272;6.554;2023-05-10T02:39:49;17.00;99.90
4701;DHT22;8724;51.272;6.554;2023-05-10T02:42:20;17.00;99.90
4701;DHT22;8724;51.272;6.554;2023-05-10T02:44:53;17.00;99.90
4701;DHT22;8724;51.272;6.554;2023-05-10T02:47:22;17.00;99.90
4701;DHT22;8724;51.272;6.554;2023-05-10T02:49:52;17.00;99.90
4701;DHT22;8724;51.272;6.554;2023-05-10T02:52:24;17.00;99.90
4701;DHT22;8724;51.272;6.554;2023-05-10T02:54:55;17.00;99.90
4701;DHT22;8724;51.272;6.554;2023-05-10T02:57:28;17.00;99.90
4701;DHT22;8724;51.272;6.554;2023-05-10T03:00:00;17.00;99.90
4701;DHT22;8724;51.272;6.554;2023-05-10T03:02:29;17.00;99.90
4701;DHT22;8724;51.272;6.554;2023-05-10T03:05:00;17.00;99.90
4701;DHT22;8724;51.272;6.554;2023-05-10T03:07:30;17.00;99.90
4701;DHT22;8724;51.272;6.554;2023-05-10T03:09:58;17.00;99.90
4701;DHT22;8724;51.272;6.554;2023-05-10T03:12:33;17.00;99.90
4701;DHT22;8724;51.272;6.554;2023-05-10T03:15:11;17.00;99.90
4701;DHT22;8724;51.272;6.554;2023-05-10T03:17:47;17.00;99.90
4701;DHT22;8724;51.272;6.554;2023-05-10T03:20:22;16.70;99.90
4701;DHT22;8724;51.272;6.554;2023-05-10T03:22:55;17.00;99.90
4701;DHT22;8724;51.272;6.554;2023-05-10T03:25:24;17.00;99.90
4701;DHT22;8724;51.272;6.554;2023-05-10T03:27:53;17.00;99.90
4701;DHT22;8724;51.272;6.554;2023-05-10T03:30:24;17.00;99.90
4701;DHT22;8724;51.272;6.554;2023-05-10T03:32:53;17.00;99.90
4701;DHT22;8724;51.272;6.554;2023-05-10T03:35:23;17.00;99.90
4701;DHT22;8724;51.272;6.554;2023-05-10T03:37:52;17.00;99.90
4701;DHT22;8724;51.272;6.554;2023-05-10T03:40:20;17.20;99.90
4701;DHT22;8724;51.272;6.554;2023-05-10T03:42:50;16.90;99.90
4701;DHT22;8724;51.272;6.554;2023-05-10T03:45:18;16.90;99.90
4701;DHT22;8724;51.272;6.554;2023-05-10T03:47:47;16.90;99.90
4701;DHT22;8724;51.272;6.554;2023-05-10T03:50:15;16.90;99.90
4701;DHT22;8724;51.272;6.554;2023-05-10T03:52:45;16.90;99.90
4701;DHT22;8724;51.272;6.554;2023-05-10T03:55:14;16.90;99.90
4701;DHT22;8724;51.272;6.554;2023-05-10T03:57:43;16.90;99.90
4701;DHT22;8724;51.272;6.554;2023-05-10T04:00:13;16.90;99.90
4701;DHT22;8724;51.272;6.554;2023-05-10T04:02:42;16.80;99.90
4701;DHT22;8724;51.272;6.554;2023-05-10T04:05:17;16.90;99.90
4701;DHT22;8724;51.272;6.554;2023-05-10T04:07:47;16.90;99.90
4701;DHT22;8724;51.272;6.554;2023-05-10T04:10:16;16.90;99.90
4701;DHT22;8724;51.272;6.554;2023-05-10T04:12:45;16.90;99.90
4701;DHT22;8724;51.272;6.554;2023-05-10T04:15:13;16.90;99.90
4701;DHT22;8724;51.272;6.554;2023-05-10T04:17:42;16.90;99.90
4701;DHT22;8724;51.272;6.554;2023-05-10T04:20:11;16.90;99.90
4701;DHT22;8724;51.272;6.554;2023-05-10T04:22:40;16.90;99.90
4701;DHT22;8724;51.272;6.554;2023-05-10T04:25:10;16.90;99.90
4701;DHT22;8724;51.272;6.554;2023-05-10T04:27:38;16.90;99.90
4701;DHT22;8724;51.272;6.554;2023-05-10T04:30:08;16.90;99.90
4701;DHT22;8724;51.272;6.554;2023-05-10T04:32:37;16.90;99.90
4701;DHT22;8724;51.272;6.554;2023-05-10T04:35:06;16.90;99.90
4701;DHT22;8724;51.272;6.554;2023-05-10T04:37:35;16.90;99.90
4701;DHT22;8724;51.272;6.554;2023-05-10T04:40:04;16.90;99.90
4701;DHT22;8724;51.272;6.554;2023-05-10T04:42:34;16.90;99.90
4701;DHT22;8724;51.272;6.554;2023-05-10T04:45:03;16.90;99.90
4701;DHT22;8724;51.272;6.554;2023-05-10T04:47:32;16.90;99.90
4701;DHT22;8724;51.272;6.554;2023-05-10T04:50:00;16.90;99.90
4701;DHT22;8724;51.272;6.554;2023-05-10T04:52:29;16.90;99.90
4701;DHT22;8724;51.272;6.554;2023-05-10T04:54:57;16.90;99.90
4701;DHT22;8724;51.272;6.554;2023-05-10T04:57:25;16.90;99.90
4701;DHT22;8724;51.272;6.554;2023-05-10T04:59:55;17.00;99.90
4701;DHT22;8724;51.272;6.554;2023-05-10T05:02:23;16.90;99.90
4701;DHT22;8724;51.272;6.554;2023-05-10T05:04:52;16.90;99.90
4701;DHT22;8724;51.272;6.554;2023-05-10T05:07:20;17.00;99.90
4701;DHT22;8724;51.272;6.554;2023-05-10T05:09:49;16.90;99.90
4701;DHT22;8724;51.272;6.554;2023-05-10T05:12:17;16.90;99.90
4701;DHT22;8724;51.272;6.554;2023-05-10T05:14:46;17.00;99.90
4701;DHT22;8724;51.272;6.554;2023-05-10T05:17:15;16.90;99.90
4701;DHT22;8724;51.272;6.554;2023-05-10T05:19:44;16.80;99.90
4701;DHT22;8724;51.272;6.554;2023-05-10T05:22:12;16.90;99.90
4701;DHT22;8724;51.272;6.554;2023-05-10T05:24:41;16.90;99.90
4701;DHT22;8724;51.272;6.554;2023-05-10T05:27:09;16.90;99.90
4701;DHT22;8724;51.272;6.554;2023-05-10T05:29:37;16.90;99.90
4701;DHT22;8724;51.272;6.554;2023-05-10T05:32:06;16.90;99.90
4701;DHT22;8724;51.272;6.554;2023-05-10T05:34:37;16.90;99.90
4701;DHT22;8724;51.272;6.554;2023-05-10T05:37:05;16.90;99.90
4701;DHT22;8724;51.272;6.554;2023-05-10T05:39:36;16.90;99.90
4701;DHT22;8724;51.272;6.554;2023-05-10T05:42:04;16.90;99.90
4701;DHT22;8724;51.272;6.554;2023-05-10T05:44:33;16.90;99.90
4701;DHT22;8724;51.272;6.554;2023-05-10T05:47:01;16.80;99.90
4701;DHT22;8724;51.272;6.554;2023-05-10T05:49:30;16.80;99.90
4701;DHT22;8724;51.272;6.554;2023-05-10T05:52:00;16.80;99.90
4701;DHT22;8724;51.272;6.554;2023-05-10T05:54:29;16.80;99.90
4701;DHT22;8724;51.272;6.554;2023-05-10T05:57:00;16.80;99.90
4701;DHT22;8724;51.272;6.554;2023-05-10T05:59:28;16.80;99.90
4701;DHT22;8724;51.272;6.554;2023-05-10T06:01:56;16.80;99.90
4701;DHT22;8724;51.272;6.554;2023-05-10T06:04:25;16.70;99.90
4701;DHT22;8724;51.272;6.554;2023-05-10T06:06:54;16.70;99.90
4701;DHT22;8724;51.272;6.554;2023-05-10T06:09:24;16.80;99.90
4701;DHT22;8724;51.272;6.554;2023-05-10T06:11:53;16.80;99.90
4701;DHT22;8724;51.272;6.554;2023-05-10T06:14:21;16.80;99.90
4701;DHT22;8724;51.272;6.554;2023-05-10T06:16:50;16.80;99.90
4701;DHT22;8724;51.272;6.554;2023-05-10T06:19:18;16.80;99.90
4701;DHT22;8724;51.272;6.554;2023-05-10T06:21:47;16.70;99.90
4701;DHT22;8724;51.272;6.554;2023-05-10T06:24:17;16.80;99.90
4701;DHT22;8724;51.272;6.554;2023-05-10T06:26:47;16.80;99.90
4701;DHT22;8724;51.272;6.554;2023-05-10T06:29:16;16.80;99.90
4701;DHT22;8724;51.272;6.554;2023-05-10T06:31:45;16.80;99.90
4701;DHT22;8724;51.272;6.554;2023-05-10T06:34:13;16.80;99.90
4701;DHT22;8724;51.272;6.554;2023-05-10T06:36:42;16.80;99.90
4701;DHT22;8724;51.272;6.554;2023-05-10T06:39:11;16.80;99.90
4701;DHT22;8724;51.272;6.554;2023-05-10T06:41:39;16.80;99.90
4701;DHT22;8724;51.272;6.554;2023-05-10T06:44:09;16.80;99.90
4701;DHT22;8724;51.272;6.554;2023-05-10T06:46:37;16.80;99.90
4701;DHT22;8724;51.272;6.554;2023-05-10T06:49:06;16.80;99.90
4701;DHT22;8724;51.272;6.554;2023-05-10T06:51:34;16.80;99.90
4701;DHT22;8724;51.272;6.554;2023-05-10T06:54:03;16.80;99.90
4701;DHT22;8724;51.272;6.554;2023-05-10T06:56:31;16.80;99.90
4701;DHT22;8724;51.272;6.554;2023-05-10T06:59:00;16.80;99.90
4701;DHT22;8724;51.272;6.554;2023-05-10T07:01:30;16.80;99.90
4701;DHT22;8724;51.272;6.554;2023-05-10T07:03:58;16.80;99.90
4701;DHT22;8724;51.272;6.554;2023-05-10T07:06:29;16.80;99.90
4701;DHT22;8724;51.272;6.554;2023-05-10T07:09:00;16.80;99.90
4701;DHT22;8724;51.272;6.554;2023-05-10T07:11:29;16.80;99.90
4701;DHT22;8724;51.272;6.554;2023-05-10T07:13:57;16.80;99.90
4701;DHT22;8724;51.272;6.554;2023-05-10T07:16:26;16.80;99.90
4701;DHT22;8724;51.272;6.554;2023-05-10T07:18:57;16.70;99.90
4701;DHT22;8724;51.272;6.554;2023-05-10T07:21:25;16.70;99.90
4701;DHT22;8724;51.272;6.554;2023-05-10T07:23:55;16.70;99.90
4701;DHT22;8724;51.272;6.554;2023-05-10T07:26:24;16.70;99.90
4701;DHT22;8724;51.272;6.554;2023-05-10T07:28:52;16.70;99.90
4701;DHT22;8724;51.272;6.554;2023-05-10T07:31:21;16.70;99.90
4701;DHT22;8724;51.272;6.554;2023-05-10T07:33:49;16.80;99.90
4701;DHT22;8724;51.272;6.554;2023-05-10T07:36:19;16.70;99.90
4701;DHT22;8724;51.272;6.554;2023-05-10T07:38:47;16.70;99.90
4701;DHT22;8724;51.272;6.554;2023-05-10T07:41:16;16.70;99.90
4701;DHT22;8724;51.272;6.554;2023-05-10T07:43:45;16.80;99.90
4701;DHT22;8724;51.272;6.554;2023-05-10T07:46:14;16.80;99.90
4701;DHT22;8724;51.272;6.554;2023-05-10T07:48:42;16.80;99.90
4701;DHT22;8724;51.272;6.554;2023-05-10T07:51:11;16.80;99.90
4701;DHT22;8724;51.272;6.554;2023-05-10T07:53:41;16.80;99.90
4701;DHT22;8724;51.272;6.554;2023-05-10T07:56:21;16.80;99.90
4701;DHT22;8724;51.272;6.554;2023-05-10T07:58:50;16.80;99.90
4701;DHT22;8724;51.272;6.554;2023-05-10T08:01:18;16.90;99.90
4701;DHT22;8724;51.272;6.554;2023-05-10T08:03:46;16.80;99.90
4701;DHT22;8724;51.272;6.554;2023-05-10T08:06:17;16.80;99.90
4701;DHT22;8724;51.272;6.554;2023-05-10T08:08:47;16.80;99.90
4701;DHT22;8724;51.272;6.554;2023-05-10T08:11:17;16.80;99.90
4701;DHT22;8724;51.272;6.554;2023-05-10T08:13:45;16.80;99.90
4701;DHT22;8724;51.272;6.554;2023-05-10T08:16:14;16.80;99.90
4701;DHT22;8724;51.272;6.554;2023-05-10T08:18:44;16.80;99.90
4701;DHT22;8724;51.272;6.554;2023-05-10T08:21:14;16.80;99.90
4701;DHT22;8724;51.272;6.554;2023-05-10T08:23:43;16.70;99.90
4701;DHT22;8724;51.272;6.554;2023-05-10T08:26:13;16.80;99.90
4701;DHT22;8724;51.272;6.554;2023-05-10T08:28:41;16.80;99.90
4701;DHT22;8724;51.272;6.554;2023-05-10T08:31:10;16.80;99.90
4701;DHT22;8724;51.272;6.554;2023-05-10T08:33:38;16.80;99.90
4701;DHT22;8724;51.272;6.554;2023-05-10T08:36:09;16.80;99.90
4701;DHT22;8724;51.272;6.554;2023-05-10T08:38:38;16.80;99.90
4701;DHT22;8724;51.272;6.554;2023-05-10T08:41:06;16.80;99.90
4701;DHT22;8724;51.272;6.554;2023-05-10T08:43:37;16.80;99.90
4701;DHT22;8724;51.272;6.554;2023-05-10T08:46:09;16.80;99.90
4701;DHT22;8724;51.272;6.554;2023-05-10T08:48:39;16.70;99.90
4701;DHT22;8724;51.272;6.554;2023-05-10T08:51:08;16.70;99.90
4701;DHT22;8724;51.272;6.554;2023-05-10T08:53:37;16.70;99.90
4701;DHT22;8724;51.272;6.554;2023-05-10T08:56:06;16.70;99.90
4701;DHT22;8724;51.272;6.554;2023-05-10T08:58:37;16.70;99.90
4701;DHT22;8724;51.272;6.554;2023-05-10T09:01:05;16.70;99.90
4701;DHT22;8724;51.272;6.554;2023-05-10T09:03:35;16.70;99.90
4701;DHT22;8724;51.272;6.554;2023-05-10T09:06:06;16.70;99.90
4701;DHT22;8724;51.272;6.554;2023-05-10T09:08:36;16.70;99.90
4701;DHT22;8724;51.272;6.554;2023-05-10T09:11:05;16.70;99.90
4701;DHT22;8724;51.272;6.554;2023-05-10T09:13:37;16.70;99.90
4701;DHT22;8724;51.272;6.554;2023-05-10T09:16:06;16.70;99.90
4701;DHT22;8724;51.272;6.554;2023-05-10T09:18:48;16.70;99.90
4701;DHT22;8724;51.272;6.554;2023-05-10T09:21:19;16.70;99.90
4701;DHT22;8724;51.272;6.554;2023-05-10T09:23:48;16.70;99.90
4701;DHT22;8724;51.272;6.554;2023-05-10T09:26:17;16.70;99.90
4701;DHT22;8724;51.272;6.554;2023-05-10T09:28:52;16.70;99.90
4701;DHT22;8724;51.272;6.554;2023-05-10T09:31:21;16.70;99.90
4701;DHT22;8724;51.272;6.554;2023-05-10T09:33:51;16.70;99.90
4701;DHT22;8724;51.272;6.554;2023-05-10T09:36:20;16.70;99.90
4701;DHT22;8724;51.272;6.554;2023-05-10T09:38:49;16.70;99.90
4701;DHT22;8724;51.272;6.554;2023-05-10T09:41:20;16.70;99.90
4701;DHT22;8724;51.272;6.554;2023-05-10T09:43:49;16.60;99.90
4701;DHT22;8724;51.272;6.554;2023-05-10T09:46:19;16.60;99.90
4701;DHT22;8724;51.272;6.554;2023-05-10T09:48:48;16.60;99.90
4701;DHT22;8724;51.272;6.554;2023-05-10T09:51:20;16.50;99.90
4701;DHT22;8724;51.272;6.554;2023-05-10T09:53:49;16.50;99.90
4701;DHT22;8724;51.272;6.554;2023-05-10T09:56:37;16.50;99.90
4701;DHT22;8724;51.272;6.554;2023-05-10T09:59:09;16.50;99.90
4701;DHT22;8724;51.272;6.554;2023-05-10T10:01:40;16.50;99.90
4701;DHT22;8724;51.272;6.554;2023-05-10T10:04:09;16.50;99.90
4701;DHT22;8724;51.272;6.554;2023-05-10T10:06:39;16.50;99.90
4701;DHT22;8724;51.272;6.554;2023-05-10T10:09:08;16.60;99.90
4701;DHT22;8724;51.272;6.554;2023-05-10T10:11:38;16.60;99.90
4701;DHT22;8724;51.272;6.554;2023-05-10T10:14:08;16.50;99.90
4701;DHT22;8724;51.272;6.554;2023-05-10T10:16:38;16.60;99.90
4701;DHT22;8724;51.272;6.554;2023-05-10T10:19:25;16.60;99.90
4701;DHT22;8724;51.272;6.554;2023-05-10T10:21:57;16.60;99.90
4701;DHT22;8724;51.272;6.554;2023-05-10T10:24:26;16.60;99.90
4701;DHT22;8724;51.272;6.554;2023-05-10T10:26:58;16.70;99.90
4701;DHT22;8724;51.272;6.554;2023-05-10T10:29:35;16.70;99.90
4701;DHT22;8724;51.272;6.554;2023-05-10T10:32:19;16.70;99.90
4701;DHT22;8724;51.272;6.554;2023-05-10T10:34:50;16.70;99.90
4701;DHT22;8724;51.272;6.554;2023-05-10T10:37:19;16.70;99.90
4701;DHT22;8724;51.272;6.554;2023-05-10T10:39:48;16.70;99.90
4701;DHT22;8724;51.272;6.554;2023-05-10T10:42:44;16.80;99.90
4701;DHT22;8724;51.272;6.554;2023-05-10T10:45:13;16.80;99.90
4701;DHT22;8724;51.272;6.554;2023-05-10T10:47:44;16.80;99.90
4701;DHT22;8724;51.272;6.554;2023-05-10T10:50:12;16.80;99.90
4701;DHT22;8724;51.272;6.554;2023-05-10T10:52:43;16.80;99.90
4701;DHT22;8724;51.272;6.554;2023-05-10T10:55:13;16.80;99.90
4701;DHT22;8724;51.272;6.554;2023-05-10T10:57:46;16.80;99.90
4701;DHT22;8724;51.272;6.554;2023-05-10T11:00:24;16.80;99.90
4701;DHT22;8724;51.272;6.554;2023-05-10T11:02:57;16.90;99.90
4701;DHT22;8724;51.272;6.554;2023-05-10T11:05:43;16.80;99.90
4701;DHT22;8724;51.272;6.554;2023-05-10T11:08:17;16.80;99.90
4701;DHT22;8724;51.272;6.554;2023-05-10T11:11:01;16.80;99.90
4701;DHT22;8724;51.272;6.554;2023-05-10T11:13:33;16.80;99.90
4701;DHT22;8724;51.272;6.554;2023-05-10T11:16:18;16.80;99.90
4701;DHT22;8724;51.272;6.554;2023-05-10T11:18:58;16.70;99.90
4701;DHT22;8724;51.272;6.554;2023-05-10T11:21:29;16.70;99.90
4701;DHT22;8724;51.272;6.554;2023-05-10T11:23:59;16.70;99.90
4701;DHT22;8724;51.272;6.554;2023-05-10T11:26:34;16.70;99.90
4701;DHT22;8724;51.272;6.554;2023-05-10T11:29:03;16.70;99.90
4701;DHT22;8724;51.272;6.554;2023-05-10T11:31:32;16.70;99.90
4701;DHT22;8724;51.272;6.554;2023-05-10T11:34:02;16.70;99.90
4701;DHT22;8724;51.272;6.554;2023-05-10T11:36:33;16.80;99.90
4701;DHT22;8724;51.272;6.554;2023-05-10T11:39:03;17.00;99.90
4701;DHT22;8724;51.272;6.554;2023-05-10T11:41:32;16.80;99.90
4701;DHT22;8724;51.272;6.554;2023-05-10T11:44:01;16.80;99.90
4701;DHT22;8724;51.272;6.554;2023-05-10T11:46:30;16.80;99.90
4701;DHT22;8724;51.272;6.554;2023-05-10T11:49:01;16.80;99.90
4701;DHT22;8724;51.272;6.554;2023-05-10T11:51:33;16.80;99.90
4701;DHT22;8724;51.272;6.554;2023-05-10T11:54:06;16.80;99.90
4701;DHT22;8724;51.272;6.554;2023-05-10T11:56:35;16.80;99.90
4701;DHT22;8724;51.272;6.554;2023-05-10T11:59:04;16.80;99.90
4701;DHT22;8724;51.272;6.554;2023-05-10T12:01:32;16.90;99.90
4701;DHT22;8724;51.272;6.554;2023-05-10T12:04:03;16.90;99.90
4701;DHT22;8724;51.272;6.554;2023-05-10T12:06:37;16.90;99.90
4701;DHT22;8724;51.272;6.554;2023-05-10T12:09:08;16.90;99.90
4701;DHT22;8724;51.272;6.554;2023-05-10T12:11:38;16.90;99.90
4701;DHT22;8724;51.272;6.554;2023-05-10T12:14:10;16.90;99.90
4701;DHT22;8724;51.272;6.554;2023-05-10T12:16:39;16.90;99.90
4701;DHT22;8724;51.272;6.554;2023-05-10T12:19:09;16.90;99.90
4701;DHT22;8724;51.272;6.554;2023-05-10T12:21:37;16.90;99.90
4701;DHT22;8724;51.272;6.554;2023-05-10T12:24:08;16.90;99.90
4701;DHT22;8724;51.272;6.554;2023-05-10T12:26:37;16.90;99.90
4701;DHT22;8724;51.272;6.554;2023-05-10T12:29:13;16.90;99.90
4701;DHT22;8724;51.272;6.554;2023-05-10T12:31:55;16.90;99.90
4701;DHT22;8724;51.272;6.554;2023-05-10T12:34:31;17.00;99.90
4701;DHT22;8724;51.272;6.554;2023-05-10T12:37:00;17.00;99.90
4701;DHT22;8724;51.272;6.554;2023-05-10T12:39:39;17.00;99.90
4701;DHT22;8724;51.272;6.554;2023-05-10T12:42:08;17.10;99.90
4701;DHT22;8724;51.272;6.554;2023-05-10T12:44:37;17.10;99.90
4701;DHT22;8724;51.272;6.554;2023-05-10T12:47:05;17.10;99.90
4701;DHT22;8724;51.272;6.554;2023-05-10T12:49:35;17.10;99.90
4701;DHT22;8724;51.272;6.554;2023-05-10T12:52:04;17.10;99.90
4701;DHT22;8724;51.272;6.554;2023-05-10T12:54:32;17.10;99.90
4701;DHT22;8724;51.272;6.554;2023-05-10T12:57:00;17.20;99.90
4701;DHT22;8724;51.272;6.554;2023-05-10T12:59:29;17.20;99.90
4701;DHT22;8724;51.272;6.554;2023-05-10T13:01:58;17.20;99.90
4701;DHT22;8724;51.272;6.554;2023-05-10T13:04:26;17.30;99.90
4701;DHT22;8724;51.272;6.554;2023-05-10T13:06:56;17.30;99.90
4701;DHT22;8724;51.272;6.554;2023-05-10T13:09:26;17.30;99.90
4701;DHT22;8724;51.272;6.554;2023-05-10T13:11:56;17.30;99.90
4701;DHT22;8724;51.272;6.554;2023-05-10T13:14:25;17.40;99.90
4701;DHT22;8724;51.272;6.554;2023-05-10T13:16:53;17.40;99.90
4701;DHT22;8724;51.272;6.554;2023-05-10T13:19:22;17.40;99.90
4701;DHT22;8724;51.272;6.554;2023-05-10T13:21:51;17.40;99.90
4701;DHT22;8724;51.272;6.554;2023-05-10T13:24:20;17.40;99.90
4701;DHT22;8724;51.272;6.554;2023-05-10T13:26:49;17.50;99.90
4701;DHT22;8724;51.272;6.554;2023-05-10T13:29:17;17.50;99.90
4701;DHT22;8724;51.272;6.554;2023-05-10T13:31:48;17.60;99.90
4701;DHT22;8724;51.272;6.554;2023-05-10T13:34:17;17.60;99.90
4701;DHT22;8724;51.272;6.554;2023-05-10T13:36:47;17.60;99.90
4701;DHT22;8724;51.272;6.554;2023-05-10T13:39:16;17.60;99.90
4701;DHT22;8724;51.272;6.554;2023-05-10T13:41:46;17.60;99.90
4701;DHT22;8724;51.272;6.554;2023-05-10T13:44:14;17.70;99.90
4701;DHT22;8724;51.272;6.554;2023-05-10T13:46:43;17.60;99.90
4701;DHT22;8724;51.272;6.554;2023-05-10T13:49:11;17.70;99.90
4701;DHT22;8724;51.272;6.554;2023-05-10T13:51:40;17.70;99.90
4701;DHT22;8724;51.272;6.554;2023-05-10T13:54:08;17.70;99.90
4701;DHT22;8724;51.272;6.554;2023-05-10T13:56:39;17.80;99.90
4701;DHT22;8724;51.272;6.554;2023-05-10T13:59:09;17.80;99.90
4701;DHT22;8724;51.272;6.554;2023-05-10T14:01:38;17.80;99.90
4701;DHT22;8724;51.272;6.554;2023-05-10T14:04:06;17.80;99.90
4701;DHT22;8724;51.272;6.554;2023-05-10T14:06:37;17.90;99.90
4701;DHT22;8724;51.272;6.554;2023-05-10T14:09:06;17.90;99.90
4701;DHT22;8724;51.272;6.554;2023-05-10T14:11:34;17.90;99.90
4701;DHT22;8724;51.272;6.554;2023-05-10T14:14:02;18.00;99.90
4701;DHT22;8724;51.272;6.554;2023-05-10T14:16:32;18.00;99.90
4701;DHT22;8724;51.272;6.554;2023-05-10T14:19:01;18.00;99.90
4701;DHT22;8724;51.272;6.554;2023-05-10T14:21:29;18.00;99.90
4701;DHT22;8724;51.272;6.554;2023-05-10T14:23:58;18.00;99.90
4701;DHT22;8724;51.272;6.554;2023-05-10T14:26:26;18.10;99.90
4701;DHT22;8724;51.272;6.554;2023-05-10T14:28:54;18.10;99.90
4701;DHT22;8724;51.272;6.554;2023-05-10T14:31:23;18.10;99.90
4701;DHT22;8724;51.272;6.554;2023-05-10T14:33:54;18.10;99.90
4701;DHT22;8724;51.272;6.554;2023-05-10T14:36:22;18.10;99.90
4701;DHT22;8724;51.272;6.554;2023-05-10T14:38:51;18.20;99.90
4701;DHT22;8724;51.272;6.554;2023-05-10T14:41:19;18.10;99.90
4701;DHT22;8724;51.272;6.554;2023-05-10T14:43:48;18.20;99.90
4701;DHT22;8724;51.272;6.554;2023-05-10T14:46:16;18.10;99.90
4701;DHT22;8724;51.272;6.554;2023-05-10T14:48:45;18.20;99.90
4701;DHT22;8724;51.272;6.554;2023-05-10T14:51:14;18.20;99.90
4701;DHT22;8724;51.272;6.554;2023-05-10T14:53:43;18.20;99.90
4701;DHT22;8724;51.272;6.554;2023-05-10T14:56:11;18.20;99.90
4701;DHT22;8724;51.272;6.554;2023-05-10T14:58:40;18.20;99.90
4701;DHT22;8724;51.272;6.554;2023-05-10T15:01:08;18.30;99.90
4701;DHT22;8724;51.272;6.554;2023-05-10T15:03:37;18.30;99.90
4701;DHT22;8724;51.272;6.554;2023-05-10T15:06:08;18.30;99.90
4701;DHT22;8724;51.272;6.554;2023-05-10T15:08:38;18.30;99.90
4701;DHT22;8724;51.272;6.554;2023-05-10T15:11:06;18.30;99.90
4701;DHT22;8724;51.272;6.554;2023-05-10T15:13:35;18.30;99.90
4701;DHT22;8724;51.272;6.554;2023-05-10T15:16:03;18.30;99.90
4701;DHT22;8724;51.272;6.554;2023-05-10T15:18:32;18.30;99.90
4701;DHT22;8724;51.272;6.554;2023-05-10T15:21:00;18.30;99.90
4701;DHT22;8724;51.272;6.554;2023-05-10T15:23:29;18.40;99.90
4701;DHT22;8724;51.272;6.554;2023-05-10T15:26:00;18.30;99.90
4701;DHT22;8724;51.272;6.554;2023-05-10T15:28:29;18.30;99.90
4701;DHT22;8724;51.272;6.554;2023-05-10T15:31:00;18.30;99.90
4701;DHT22;8724;51.272;6.554;2023-05-10T15:33:28;18.30;99.90
4701;DHT22;8724;51.272;6.554;2023-05-10T15:35:57;18.30;99.90
4701;DHT22;8724;51.272;6.554;2023-05-10T15:38:25;18.20;99.90
4701;DHT22;8724;51.272;6.554;2023-05-10T15:40:56;18.20;99.90
4701;DHT22;8724;51.272;6.554;2023-05-10T15:43:26;18.10;99.90
4701;DHT22;8724;51.272;6.554;2023-05-10T15:45:54;18.10;99.90
4701;DHT22;8724;51.272;6.554;2023-05-10T15:48:23;18.00;99.90
4701;DHT22;8724;51.272;6.554;2023-05-10T15:50:51;17.90;99.90
4701;DHT22;8724;51.272;6.554;2023-05-10T15:53:19;17.80;99.90
4701;DHT22;8724;51.272;6.554;2023-05-10T15:55:48;17.80;99.90
4701;DHT22;8724;51.272;6.554;2023-05-10T15:58:16;17.80;99.90
4701;DHT22;8724;51.272;6.554;2023-05-10T16:00:46;17.80;99.90
4701;DHT22;8724;51.272;6.554;2023-05-10T16:03:14;17.80;99.90
4701;DHT22;8724;51.272;6.554;2023-05-10T16:05:43;17.80;99.90
4701;DHT22;8724;51.272;6.554;2023-05-10T16:08:11;17.70;99.90
4701;DHT22;8724;51.272;6.554;2023-05-10T16:10:40;17.70;99.90
4701;DHT22;8724;51.272;6.554;2023-05-10T16:13:08;17.60;99.90
4701;DHT22;8724;51.272;6.554;2023-05-10T16:15:37;17.60;99.90
4701;DHT22;8724;51.272;6.554;2023-05-10T16:18:07;17.70;99.90
4701;DHT22;8724;51.272;6.554;2023-05-10T16:20:35;17.60;99.90